sensor_id;sensor_type;location;lat;lon;timestamp;pressure;altitude;pressure_sealevel;temperature;humidity
76496;BME280;65329;52.544;4.662;2022-12-04T00:01:15;102089.75;;;12.99;65.25
76496;BME280;65329;52.544;4.662;2022-12-04T00:03:42;102082.72;;;12.96;65.16
76496;BME280;65329;52.544;4.662;2022-12-04T00:06:17;102083.59;;;12.97;65.26
76496;BME280;65329;52.544;4.662;2022-12-04T00:08:45;102082.03;;;12.94;65.62
76496;BME280;65329;52.544;4.662;2022-12-04T00:11:16;102081.16;;;12.94;65.29
76496;BME280;65329;52.544;4.662;2022-12-04T00:13:43;102079.47;;;12.93;65.48
76496;BME280;65329;52.544;4.662;2022-12-04T00:16:12;102078.75;;;12.91;65.30
76496;BME280;65329;52.544;4.662;2022-12-04T00:18:40;102067.13;;;12.89;64.99
76496;BME280;65329;52.544;4.662;2022-12-04T00:21:10;102058.91;;;12.89;65.07
76496;BME280;65329;52.544;4.662;2022-12-04T00:23:38;102063.69;;;12.87;65.16
76496;BME280;65329;52.544;4.662;2022-12-04T00:26:07;102067.13;;;12.89;65.48
76496;BME280;65329;52.544;4.662;2022-12-04T00:28:35;102061.97;;;12.86;65.11
76496;BME280;65329;52.544;4.662;2022-12-04T00:31:06;102061.63;;;12.81;65.02
76496;BME280;65329;52.544;4.662;2022-12-04T00:33:34;102067.44;;;12.86;65.48
76496;BME280;65329;52.544;4.662;2022-12-04T00:36:04;102067.94;;;12.81;64.86
76496;BME280;65329;52.544;4.662;2022-12-04T00:38:31;102066.06;;;12.82;65.40
76496;BME280;65329;52.544;4.662;2022-12-04T00:40:58;102055.44;;;12.79;64.95
76496;BME280;65329;52.544;4.662;2022-12-04T00:43:27;102049.97;;;12.79;64.77
76496;BME280;65329;52.544;4.662;2022-12-04T00:45:54;102053.91;;;12.76;65.08
76496;BME280;65329;52.544;4.662;2022-12-04T00:48:21;102060.91;;;12.79;65.25
76496;BME280;65329;52.544;4.662;2022-12-04T00:50:48;102056.63;;;12.76;65.09
76496;BME280;65329;52.544;4.662;2022-12-04T00:53:15;102059.53;;;12.75;64.97
76496;BME280;65329;52.544;4.662;2022-12-04T00:55:43;102060.38;;;12.75;65.28
76496;BME280;65329;52.544;4.662;2022-12-04T00:58:10;102067.03;;;12.73;64.72
76496;BME280;65329;52.544;4.662;2022-12-04T01:00:39;102065.16;;;12.73;65.12
76496;BME280;65329;52.544;4.662;2022-12-04T01:03:07;102056.09;;;12.73;65.18
76496;BME280;65329;52.544;4.662;2022-12-04T01:05:43;102050.94;;;12.70;65.11
76496;BME280;65329;52.544;4.662;2022-12-04T01:08:11;102047.34;;;12.69;65.01
76496;BME280;65329;52.544;4.662;2022-12-04T01:10:40;102043.06;;;12.67;64.89
76496;BME280;65329;52.544;4.662;2022-12-04T01:13:07;102047.50;;;12.68;64.93
76496;BME280;65329;52.544;4.662;2022-12-04T01:15:38;102052.97;;;12.68;64.71
76496;BME280;65329;52.544;4.662;2022-12-04T01:18:05;102065.97;;;12.66;64.73
76496;BME280;65329;52.544;4.662;2022-12-04T01:20:32;102055.34;;;12.63;65.05
76496;BME280;65329;52.544;4.662;2022-12-04T01:22:59;102059.97;;;12.62;65.24
76496;BME280;65329;52.544;4.662;2022-12-04T01:25:25;102066.31;;;12.63;65.23
76496;BME280;65329;52.544;4.662;2022-12-04T01:27:52;102064.56;;;12.62;64.61
76496;BME280;65329;52.544;4.662;2022-12-04T01:30:18;102063.72;;;12.61;64.84
76496;BME280;65329;52.544;4.662;2022-12-04T01:32:45;102064.88;;;12.59;65.19
76496;BME280;65329;52.544;4.662;2022-12-04T01:35:12;102059.41;;;12.59;64.97
76496;BME280;65329;52.544;4.662;2022-12-04T01:37:38;102052.41;;;12.56;65.15
76496;BME280;65329;52.544;4.662;2022-12-04T01:40:05;102043.00;;;12.59;64.64
76496;BME280;65329;52.544;4.662;2022-12-04T01:42:34;102047.81;;;12.57;64.77
76496;BME280;65329;52.544;4.662;2022-12-04T01:48:28;102054.28;;;12.56;65.12
76496;BME280;65329;52.544;4.662;2022-12-04T01:53:52;102032.03;;;12.51;64.87
76496;BME280;65329;52.544;4.662;2022-12-04T01:56:23;102037.34;;;12.52;64.94
76496;BME280;65329;52.544;4.662;2022-12-04T01:58:53;102038.50;;;12.50;64.73
76496;BME280;65329;52.544;4.662;2022-12-04T02:01:22;102031.16;;;12.50;64.97
76496;BME280;65329;52.544;4.662;2022-12-04T02:03:49;101997.72;;;12.31;64.53
76496;BME280;65329;52.544;4.662;2022-12-04T02:06:16;102042.28;;;12.49;64.75
76496;BME280;65329;52.544;4.662;2022-12-04T02:08:42;102031.66;;;12.46;64.94
76496;BME280;65329;52.544;4.662;2022-12-04T02:16:55;102030.28;;;12.42;64.92
76496;BME280;65329;52.544;4.662;2022-12-04T02:21:58;102030.59;;;12.39;64.94
76496;BME280;65329;52.544;4.662;2022-12-04T02:24:58;102036.06;;;12.39;64.76
76496;BME280;65329;52.544;4.662;2022-12-04T02:30:10;102044.25;;;12.39;65.10
76496;BME280;65329;52.544;4.662;2022-12-04T02:32:46;102042.69;;;12.36;64.71
76496;BME280;65329;52.544;4.662;2022-12-04T02:35:20;102028.84;;;12.38;64.88
76496;BME280;65329;52.544;4.662;2022-12-04T02:37:56;102032.63;;;12.37;64.77
76496;BME280;65329;52.544;4.662;2022-12-04T02:40:30;102038.09;;;12.37;64.89
76496;BME280;65329;52.544;4.662;2022-12-04T02:43:13;102037.53;;;12.33;64.84
76496;BME280;65329;52.544;4.662;2022-12-04T02:45:46;102039.78;;;12.38;64.65
76496;BME280;65329;52.544;4.662;2022-12-04T02:48:17;102039.44;;;12.33;64.87
76496;BME280;65329;52.544;4.662;2022-12-04T02:50:46;102038.41;;;12.34;64.92
76496;BME280;65329;52.544;4.662;2022-12-04T02:53:25;102035.31;;;12.29;65.26
76496;BME280;65329;52.544;4.662;2022-12-04T02:55:56;102031.56;;;12.30;64.88
76496;BME280;65329;52.544;4.662;2022-12-04T02:58:34;102031.88;;;12.27;64.93
76496;BME280;65329;52.544;4.662;2022-12-04T03:01:06;102037.19;;;12.28;64.96
76496;BME280;65329;52.544;4.662;2022-12-04T03:03:56;102028.13;;;12.28;64.98
76496;BME280;65329;52.544;4.662;2022-12-04T03:06:27;102032.91;;;12.26;64.61
76496;BME280;65329;52.544;4.662;2022-12-04T03:09:00;102027.44;;;12.26;64.88
76496;BME280;65329;52.544;4.662;2022-12-04T03:11:29;102034.78;;;12.25;64.74
76496;BME280;65329;52.544;4.662;2022-12-04T03:14:13;102028.75;;;12.22;65.00
76496;BME280;65329;52.544;4.662;2022-12-04T03:16:42;102025.88;;;12.23;64.58
76496;BME280;65329;52.544;4.662;2022-12-04T03:19:19;102015.97;;;12.22;64.55
76496;BME280;65329;52.544;4.662;2022-12-04T03:22:02;102023.44;;;12.20;64.58
76496;BME280;65329;52.544;4.662;2022-12-04T03:24:35;102018.16;;;12.19;64.44
76496;BME280;65329;52.544;4.662;2022-12-04T03:27:17;102017.97;;;12.20;64.94
76496;BME280;65329;52.544;4.662;2022-12-04T03:30:01;102018.16;;;12.19;65.00
76496;BME280;65329;52.544;4.662;2022-12-04T03:37:59;102008.41;;;12.16;65.37
76496;BME280;65329;52.544;4.662;2022-12-04T03:40:37;102015.91;;;12.14;64.82
76496;BME280;65329;52.544;4.662;2022-12-04T03:45:53;102014.34;;;12.12;64.93
76496;BME280;65329;52.544;4.662;2022-12-04T03:48:32;102015.38;;;12.11;64.99
76496;BME280;65329;52.544;4.662;2022-12-04T03:51:11;102010.75;;;12.11;64.89
76496;BME280;65329;52.544;4.662;2022-12-04T03:53:48;102019.09;;;12.10;65.07
76496;BME280;65329;52.544;4.662;2022-12-04T03:56:17;102022.88;;;12.09;65.02
76496;BME280;65329;52.544;4.662;2022-12-04T03:58:56;102016.84;;;12.05;64.76
76496;BME280;65329;52.544;4.662;2022-12-04T04:01:34;102017.41;;;12.09;65.00
76496;BME280;65329;52.544;4.662;2022-12-04T04:04:04;102021.16;;;12.08;65.07
76496;BME280;65329;52.544;4.662;2022-12-04T04:06:38;102013.97;;;12.07;64.90
76496;BME280;65329;52.544;4.662;2022-12-04T04:09:15;102010.53;;;12.05;64.62
76496;BME280;65329;52.544;4.662;2022-12-04T04:12:17;102007.97;;;12.03;64.67
76496;BME280;65329;52.544;4.662;2022-12-04T04:14:52;102005.41;;;12.02;64.84
76496;BME280;65329;52.544;4.662;2022-12-04T04:17:42;102011.69;;;12.02;64.90
76496;BME280;65329;52.544;4.662;2022-12-04T04:20:50;102005.41;;;12.02;64.68
76496;BME280;65329;52.544;4.662;2022-12-04T04:23:41;101997.53;;;11.99;64.87
76496;BME280;65329;52.544;4.662;2022-12-04T04:26:32;101999.38;;;11.98;64.65
76496;BME280;65329;52.544;4.662;2022-12-04T04:29:01;102005.72;;;11.99;64.90
76496;BME280;65329;52.544;4.662;2022-12-04T04:31:42;101995.78;;;11.98;64.68
76496;BME280;65329;52.544;4.662;2022-12-04T04:34:17;102002.13;;;11.98;64.77
76496;BME280;65329;52.544;4.662;2022-12-04T04:39:35;102001.56;;;11.95;64.54
76496;BME280;65329;52.544;4.662;2022-12-04T04:42:20;102007.03;;;11.95;64.80
76496;BME280;65329;52.544;4.662;2022-12-04T04:45:47;102003.63;;;11.93;64.87
76496;BME280;65329;52.544;4.662;2022-12-04T04:48:15;101997.44;;;11.91;64.97
76496;BME280;65329;52.544;4.662;2022-12-04T04:50:45;101996.41;;;11.92;65.00
76496;BME280;65329;52.544;4.662;2022-12-04T04:53:18;101996.56;;;11.90;64.77
76496;BME280;65329;52.544;4.662;2022-12-04T04:55:46;101992.31;;;11.88;64.88
76496;BME280;65329;52.544;4.662;2022-12-04T04:58:15;101998.47;;;11.90;64.46
76496;BME280;65329;52.544;4.662;2022-12-04T05:00:58;101997.75;;;11.88;64.64
76496;BME280;65329;52.544;4.662;2022-12-04T05:03:26;102004.25;;;11.87;64.69
76496;BME280;65329;52.544;4.662;2022-12-04T05:05:53;102004.25;;;11.87;64.92
76496;BME280;65329;52.544;4.662;2022-12-04T05:08:20;102002.34;;;11.87;64.78
76496;BME280;65329;52.544;4.662;2022-12-04T05:10:47;102002.19;;;11.89;64.87
76496;BME280;65329;52.544;4.662;2022-12-04T05:13:15;102003.22;;;11.88;65.19
76496;BME280;65329;52.544;4.662;2022-12-04T05:15:42;101998.78;;;11.87;64.98
76496;BME280;65329;52.544;4.662;2022-12-04T05:18:08;102001.53;;;11.87;65.04
76496;BME280;65329;52.544;4.662;2022-12-04T05:20:39;101996.75;;;11.89;64.86
76496;BME280;65329;52.544;4.662;2022-12-04T05:23:06;102004.63;;;11.92;65.20
76496;BME280;65329;52.544;4.662;2022-12-04T05:25:32;102004.63;;;11.92;65.17
76496;BME280;65329;52.544;4.662;2022-12-04T05:27:59;102009.75;;;11.95;65.32
76496;BME280;65329;52.544;4.662;2022-12-04T05:30:25;102008.06;;;11.94;64.88
76496;BME280;65329;52.544;4.662;2022-12-04T05:32:52;102008.06;;;11.94;64.92
76496;BME280;65329;52.544;4.662;2022-12-04T05:35:18;102008.78;;;11.96;64.99
76496;BME280;65329;52.544;4.662;2022-12-04T05:37:45;102010.47;;;11.97;64.72
76496;BME280;65329;52.544;4.662;2022-12-04T05:40:12;102009.44;;;11.98;64.83
76496;BME280;65329;52.544;4.662;2022-12-04T05:42:39;102012.88;;;12.00;64.92
76496;BME280;65329;52.544;4.662;2022-12-04T05:45:06;102011.19;;;11.99;64.81
76496;BME280;65329;52.544;4.662;2022-12-04T05:47:37;102014.59;;;12.01;64.93
76496;BME280;65329;52.544;4.662;2022-12-04T05:50:05;102012.88;;;12.00;64.78
76496;BME280;65329;52.544;4.662;2022-12-04T05:52:32;102009.13;;;12.01;64.97
76496;BME280;65329;52.544;4.662;2022-12-04T05:54:59;102003.66;;;12.01;64.60
76496;BME280;65329;52.544;4.662;2022-12-04T05:57:26;102017.88;;;12.04;65.09
76496;BME280;65329;52.544;4.662;2022-12-04T05:59:55;102010.53;;;12.05;64.66
76496;BME280;65329;52.544;4.662;2022-12-04T06:02:22;102020.44;;;12.06;64.78
76496;BME280;65329;52.544;4.662;2022-12-04T06:04:49;102023.88;;;12.08;64.54
76496;BME280;65329;52.544;4.662;2022-12-04T06:07:16;102022.31;;;12.05;64.64
76496;BME280;65329;52.544;4.662;2022-12-04T06:09:42;102023.19;;;12.06;64.72
76496;BME280;65329;52.544;4.662;2022-12-04T06:12:09;102022.88;;;12.09;64.79
76496;BME280;65329;52.544;4.662;2022-12-04T06:14:35;102032.09;;;12.08;64.66
76496;BME280;65329;52.544;4.662;2022-12-04T06:17:05;102032.59;;;12.11;65.08
76496;BME280;65329;52.544;4.662;2022-12-04T06:19:32;102031.78;;;12.11;64.82
76496;BME280;65329;52.544;4.662;2022-12-04T06:21:58;102023.41;;;12.12;64.82
76496;BME280;65329;52.544;4.662;2022-12-04T06:24:25;102019.97;;;12.10;64.64
76496;BME280;65329;52.544;4.662;2022-12-04T06:26:56;102028.72;;;12.14;64.95
76496;BME280;65329;52.544;4.662;2022-12-04T06:29:43;102025.28;;;12.12;65.07
76496;BME280;65329;52.544;4.662;2022-12-04T06:32:09;102030.44;;;12.15;64.72
76496;BME280;65329;52.544;4.662;2022-12-04T06:34:40;102026.97;;;12.13;64.92
76496;BME280;65329;52.544;4.662;2022-12-04T06:37:06;102022.22;;;12.15;65.07
76496;BME280;65329;52.544;4.662;2022-12-04T06:39:34;102027.69;;;12.15;64.75
76496;BME280;65329;52.544;4.662;2022-12-04T06:42:01;102030.44;;;12.15;65.14
76496;BME280;65329;52.544;4.662;2022-12-04T06:44:27;102027.69;;;12.15;64.76
76496;BME280;65329;52.544;4.662;2022-12-04T06:46:54;102025.66;;;12.17;65.11
76496;BME280;65329;52.544;4.662;2022-12-04T06:49:20;102026.00;;;12.14;64.92
76496;BME280;65329;52.544;4.662;2022-12-04T06:51:48;102025.66;;;12.17;64.78
76496;BME280;65329;52.544;4.662;2022-12-04T06:54:14;102024.78;;;12.16;65.01
76496;BME280;65329;52.544;4.662;2022-12-04T06:56:41;102020.19;;;12.17;64.96
76496;BME280;65329;52.544;4.662;2022-12-04T06:59:09;102022.94;;;12.17;65.13
76496;BME280;65329;52.544;4.662;2022-12-04T07:01:35;102016.44;;;12.18;65.03
76496;BME280;65329;52.544;4.662;2022-12-04T07:04:03;102022.94;;;12.17;65.15
76496;BME280;65329;52.544;4.662;2022-12-04T07:06:35;102023.63;;;12.19;65.13
76496;BME280;65329;52.544;4.662;2022-12-04T07:09:03;102026.34;;;12.19;65.33
76496;BME280;65329;52.544;4.662;2022-12-04T07:11:31;102025.34;;;12.20;64.87
76496;BME280;65329;52.544;4.662;2022-12-04T07:13:58;102027.38;;;12.18;65.11
76496;BME280;65329;52.544;4.662;2022-12-04T07:16:25;102031.81;;;12.19;64.97
76496;BME280;65329;52.544;4.662;2022-12-04T07:18:52;102035.25;;;12.21;65.10
76496;BME280;65329;52.544;4.662;2022-12-04T07:21:22;102033.38;;;12.21;64.78
76496;BME280;65329;52.544;4.662;2022-12-04T07:23:54;102036.81;;;12.23;65.09
76496;BME280;65329;52.544;4.662;2022-12-04T07:26:22;102029.47;;;12.24;64.89
76496;BME280;65329;52.544;4.662;2022-12-04T07:28:49;102035.97;;;12.23;65.24
76496;BME280;65329;52.544;4.662;2022-12-04T07:31:19;102033.38;;;12.21;65.13
76496;BME280;65329;52.544;4.662;2022-12-04T07:33:46;102025.03;;;12.23;64.98
76496;BME280;65329;52.544;4.662;2022-12-04T07:36:16;102023.28;;;12.22;65.13
76496;BME280;65329;52.544;4.662;2022-12-04T07:38:43;102024.16;;;12.22;64.90
76496;BME280;65329;52.544;4.662;2022-12-04T07:41:11;102025.88;;;12.23;65.17
76496;BME280;65329;52.544;4.662;2022-12-04T07:43:38;102030.34;;;12.24;64.85
76496;BME280;65329;52.544;4.662;2022-12-04T07:46:08;102031.34;;;12.23;65.11
76496;BME280;65329;52.544;4.662;2022-12-04T07:48:35;102027.59;;;12.24;65.12
76496;BME280;65329;52.544;4.662;2022-12-04T07:51:30;102045.53;;;12.27;64.85
76496;BME280;65329;52.544;4.662;2022-12-04T07:53:57;102031.00;;;12.26;65.02
76496;BME280;65329;52.544;4.662;2022-12-04T07:56:29;102035.97;;;12.23;64.83
76496;BME280;65329;52.544;4.662;2022-12-04T07:58:56;102039.38;;;12.25;65.19
76496;BME280;65329;52.544;4.662;2022-12-04T08:01:23;102036.63;;;12.25;65.10
76496;BME280;65329;52.544;4.662;2022-12-04T08:03:53;102038.38;;;12.26;65.36
76496;BME280;65329;52.544;4.662;2022-12-04T08:06:21;102034.63;;;12.27;64.98
76496;BME280;65329;52.544;4.662;2022-12-04T08:08:49;102039.06;;;12.28;65.22
76496;BME280;65329;52.544;4.662;2022-12-04T08:11:18;102047.09;;;12.29;65.12
76496;BME280;65329;52.544;4.662;2022-12-04T08:13:46;102044.53;;;12.28;64.90
76496;BME280;65329;52.544;4.662;2022-12-04T08:16:14;102045.22;;;12.30;65.39
76496;BME280;65329;52.544;4.662;2022-12-04T08:18:41;102040.47;;;12.32;65.20
76496;BME280;65329;52.544;4.662;2022-12-04T08:21:14;102048.47;;;12.33;65.21
76496;BME280;65329;52.544;4.662;2022-12-04T08:23:42;102054.81;;;12.34;65.46
76496;BME280;65329;52.544;4.662;2022-12-04T08:26:10;102057.38;;;12.35;65.51
76496;BME280;65329;52.544;4.662;2022-12-04T08:28:37;102058.25;;;12.36;65.55
76496;BME280;65329;52.544;4.662;2022-12-04T08:31:10;102056.53;;;12.35;65.42
76496;BME280;65329;52.544;4.662;2022-12-04T08:33:38;102066.28;;;12.37;65.77
76496;BME280;65329;52.544;4.662;2022-12-04T08:36:07;102059.81;;;12.38;65.83
76496;BME280;65329;52.544;4.662;2022-12-04T08:38:34;102058.25;;;12.36;66.03
76496;BME280;65329;52.544;4.662;2022-12-04T08:41:03;102062.53;;;12.38;65.99
76496;BME280;65329;52.544;4.662;2022-12-04T08:43:30;102069.53;;;12.41;66.06
76496;BME280;65329;52.544;4.662;2022-12-04T08:45:58;102064.09;;;12.41;66.08
76496;BME280;65329;52.544;4.662;2022-12-04T08:48:26;102068.56;;;12.42;65.97
76496;BME280;65329;52.544;4.662;2022-12-04T08:50:53;102068.56;;;12.42;65.96
76496;BME280;65329;52.544;4.662;2022-12-04T08:53:19;102070.25;;;12.43;65.99
76496;BME280;65329;52.544;4.662;2022-12-04T08:55:46;102071.13;;;12.43;66.25
76496;BME280;65329;52.544;4.662;2022-12-04T08:58:13;102073.69;;;12.45;66.07
76496;BME280;65329;52.544;4.662;2022-12-04T09:00:40;102068.22;;;12.45;65.95
76496;BME280;65329;52.544;4.662;2022-12-04T09:03:08;102074.53;;;12.45;66.12
76496;BME280;65329;52.544;4.662;2022-12-04T09:05:37;102082.56;;;12.47;66.10
76496;BME280;65329;52.544;4.662;2022-12-04T09:08:03;102075.25;;;12.47;66.09
76496;BME280;65329;52.544;4.662;2022-12-04T09:10:34;102077.44;;;12.44;66.58
76496;BME280;65329;52.544;4.662;2022-12-04T09:13:01;102083.28;;;12.49;66.26
76496;BME280;65329;52.544;4.662;2022-12-04T09:15:27;102074.22;;;12.48;66.57
76496;BME280;65329;52.544;4.662;2022-12-04T09:17:54;102084.31;;;12.48;66.09
76496;BME280;65329;52.544;4.662;2022-12-04T09:20:21;102096.97;;;12.49;66.43
76496;BME280;65329;52.544;4.662;2022-12-04T09:22:47;102091.34;;;12.50;66.12
76496;BME280;65329;52.544;4.662;2022-12-04T09:25:30;102098.66;;;12.50;66.15
76496;BME280;65329;52.544;4.662;2022-12-04T09:27:57;102093.19;;;12.50;66.40
76496;BME280;65329;52.544;4.662;2022-12-04T09:30:24;102101.25;;;12.51;66.18
76496;BME280;65329;52.544;4.662;2022-12-04T09:32:50;102095.78;;;12.51;66.46
76496;BME280;65329;52.544;4.662;2022-12-04T09:35:17;102096.63;;;12.52;66.60
76496;BME280;65329;52.544;4.662;2022-12-04T09:37:44;102098.34;;;12.53;66.35
76496;BME280;65329;52.544;4.662;2022-12-04T09:40:22;102096.31;;;12.55;66.72
76496;BME280;65329;52.544;4.662;2022-12-04T09:46:00;102092.56;;;12.56;66.73
76496;BME280;65329;52.544;4.662;2022-12-04T09:48:32;102093.44;;;12.56;66.69
76496;BME280;65329;52.544;4.662;2022-12-04T09:51:00;102087.09;;;12.56;66.80
76496;BME280;65329;52.544;4.662;2022-12-04T09:53:42;102085.38;;;12.55;66.93
76496;BME280;65329;52.544;4.662;2022-12-04T09:56:11;102087.09;;;12.56;66.84
76496;BME280;65329;52.544;4.662;2022-12-04T09:58:45;102091.41;;;12.58;66.50
76496;BME280;65329;52.544;4.662;2022-12-04T10:01:27;102084.19;;;12.57;66.67
76496;BME280;65329;52.544;4.662;2022-12-04T10:03:55;102087.00;;;12.65;66.31
76496;BME280;65329;52.544;4.662;2022-12-04T10:12:45;102082.88;;;12.61;66.27
76496;BME280;65329;52.544;4.662;2022-12-04T10:20:02;102073.63;;;12.62;66.79
76496;BME280;65329;52.544;4.662;2022-12-04T10:25:21;102068.00;;;12.64;66.45
76496;BME280;65329;52.544;4.662;2022-12-04T10:30:40;102063.41;;;12.64;66.61
76496;BME280;65329;52.544;4.662;2022-12-04T10:33:18;102063.41;;;12.64;66.49
76496;BME280;65329;52.544;4.662;2022-12-04T10:35:50;102061.66;;;12.63;66.51
76496;BME280;65329;52.544;4.662;2022-12-04T10:43:59;102058.78;;;12.65;66.21
76496;BME280;65329;52.544;4.662;2022-12-04T10:46:31;102061.19;;;12.68;66.44
76496;BME280;65329;52.544;4.662;2022-12-04T10:49:03;102056.75;;;12.67;66.13
76496;BME280;65329;52.544;4.662;2022-12-04T10:51:38;102063.91;;;12.68;66.05
76496;BME280;65329;52.544;4.662;2022-12-04T10:56:58;102043.44;;;12.72;66.32
76496;BME280;65329;52.544;4.662;2022-12-04T10:59:26;102044.59;;;12.69;66.48
76496;BME280;65329;52.544;4.662;2022-12-04T11:02:15;102049.75;;;12.72;66.24
76496;BME280;65329;52.544;4.662;2022-12-04T11:04:51;102046.03;;;12.73;66.53
76496;BME280;65329;52.544;4.662;2022-12-04T11:07:23;102039.69;;;12.73;66.99
76496;BME280;65329;52.544;4.662;2022-12-04T11:09:58;102039.69;;;12.73;66.65
76496;BME280;65329;52.544;4.662;2022-12-04T11:12:29;102035.06;;;12.73;66.72
76496;BME280;65329;52.544;4.662;2022-12-04T11:15:01;102044.91;;;12.92;66.51
76496;BME280;65329;52.544;4.662;2022-12-04T11:17:27;102043.31;;;12.81;66.33
76496;BME280;65329;52.544;4.662;2022-12-04T11:20:05;102045.22;;;12.81;66.14
76496;BME280;65329;52.544;4.662;2022-12-04T11:22:34;102050.34;;;12.84;66.67
76496;BME280;65329;52.544;4.662;2022-12-04T11:25:14;102042.47;;;12.81;66.60
76496;BME280;65329;52.544;4.662;2022-12-04T11:27:45;102040.91;;;12.78;66.62
76496;BME280;65329;52.544;4.662;2022-12-04T11:30:19;102039.91;;;12.79;66.79
76496;BME280;65329;52.544;4.662;2022-12-04T11:32:46;102035.59;;;12.77;66.81
76496;BME280;65329;52.544;4.662;2022-12-04T11:35:16;102036.28;;;12.79;66.67
76496;BME280;65329;52.544;4.662;2022-12-04T11:38:05;102037.00;;;12.81;66.72
76496;BME280;65329;52.544;4.662;2022-12-04T11:40:35;102030.81;;;12.79;67.17
76496;BME280;65329;52.544;4.662;2022-12-04T11:43:03;102037.00;;;12.81;66.54
76496;BME280;65329;52.544;4.662;2022-12-04T11:45:31;102028.94;;;12.79;66.84
76496;BME280;65329;52.544;4.662;2022-12-04T11:48:03;102036.13;;;12.80;66.71
76496;BME280;65329;52.544;4.662;2022-12-04T11:51:01;102028.78;;;12.81;66.36
76496;BME280;65329;52.544;4.662;2022-12-04T11:56:47;102026.88;;;12.81;66.80
76496;BME280;65329;52.544;4.662;2022-12-04T12:13:25;102016.81;;;12.82;66.74
76496;BME280;65329;52.544;4.662;2022-12-04T12:22:09;102021.97;;;12.85;66.50
76496;BME280;65329;52.544;4.662;2022-12-04T12:24:46;102016.47;;;12.85;66.42
76496;BME280;65329;52.544;4.662;2022-12-04T12:35:04;102005.53;;;12.85;66.40
76496;BME280;65329;52.544;4.662;2022-12-04T12:37:43;102006.25;;;12.87;66.62
76496;BME280;65329;52.544;4.662;2022-12-04T12:40:34;102001.78;;;12.86;66.24
76496;BME280;65329;52.544;4.662;2022-12-04T12:43:32;102004.66;;;12.84;66.13
76496;BME280;65329;52.544;4.662;2022-12-04T12:46:09;101998.53;;;12.82;66.45
76496;BME280;65329;52.544;4.662;2022-12-04T12:51:41;101996.97;;;12.80;66.70
76496;BME280;65329;52.544;4.662;2022-12-04T12:54:14;101995.25;;;12.79;66.73
76496;BME280;65329;52.544;4.662;2022-12-04T12:56:53;101988.91;;;12.78;66.38
76496;BME280;65329;52.544;4.662;2022-12-04T12:59:24;101985.50;;;12.76;66.81
76496;BME280;65329;52.544;4.662;2022-12-04T13:02:24;101981.41;;;12.80;66.51
76496;BME280;65329;52.544;4.662;2022-12-04T13:04:56;101977.81;;;12.80;66.40
76496;BME280;65329;52.544;4.662;2022-12-04T13:10:12;101987.06;;;12.79;66.55
76496;BME280;65329;52.544;4.662;2022-12-04T13:12:48;101982.28;;;12.81;66.07
76496;BME280;65329;52.544;4.662;2022-12-04T13:15:19;101993.22;;;12.81;66.17
76496;BME280;65329;52.544;4.662;2022-12-04T13:17:49;101978.50;;;12.82;65.95
76496;BME280;65329;52.544;4.662;2022-12-04T13:20:22;101980.22;;;12.83;66.04
76496;BME280;65329;52.544;4.662;2022-12-04T13:23:15;101987.41;;;12.84;66.15
76496;BME280;65329;52.544;4.662;2022-12-04T13:25:51;101977.47;;;12.83;66.53
76496;BME280;65329;52.544;4.662;2022-12-04T13:31:02;101971.00;;;12.84;66.00
76496;BME280;65329;52.544;4.662;2022-12-04T13:42:45;101977.84;;;12.88;65.92
76496;BME280;65329;52.544;4.662;2022-12-04T13:45:25;101976.16;;;12.87;65.96
76496;BME280;65329;52.544;4.662;2022-12-04T13:48:00;101982.47;;;12.87;66.18
76496;BME280;65329;52.544;4.662;2022-12-04T13:50:32;101980.59;;;12.88;66.28
76496;BME280;65329;52.544;4.662;2022-12-04T13:53:03;101974.41;;;12.86;66.26
76496;BME280;65329;52.544;4.662;2022-12-04T13:55:34;101981.28;;;12.90;65.98
76496;BME280;65329;52.544;4.662;2022-12-04T13:58:24;101968.28;;;12.92;64.65
76496;BME280;65329;52.544;4.662;2022-12-04T14:01:05;101969.47;;;12.89;65.79
76496;BME280;65329;52.544;4.662;2022-12-04T14:03:47;101965.72;;;12.90;66.22
76496;BME280;65329;52.544;4.662;2022-12-04T14:06:23;101960.41;;;12.89;66.26
76496;BME280;65329;52.544;4.662;2022-12-04T14:08:56;101962.81;;;12.92;64.15
76496;BME280;65329;52.544;4.662;2022-12-04T14:11:25;101955.63;;;12.91;64.43
76496;BME280;65329;52.544;4.662;2022-12-04T14:13:55;101966.56;;;12.91;65.82
76496;BME280;65329;52.544;4.662;2022-12-04T14:16:38;101959.41;;;12.90;66.10
76496;BME280;65329;52.544;4.662;2022-12-04T14:19:06;101956.66;;;12.90;66.15
76496;BME280;65329;52.544;4.662;2022-12-04T14:21:42;101952.03;;;12.90;65.77
76496;BME280;65329;52.544;4.662;2022-12-04T14:24:35;101945.56;;;12.91;65.95
76496;BME280;65329;52.544;4.662;2022-12-04T14:27:31;101946.38;;;12.92;66.30
76496;BME280;65329;52.544;4.662;2022-12-04T14:30:00;101951.84;;;12.92;65.93
76496;BME280;65329;52.544;4.662;2022-12-04T14:32:30;101948.47;;;12.90;65.88
76496;BME280;65329;52.544;4.662;2022-12-04T14:34:59;101954.59;;;12.92;65.94
76496;BME280;65329;52.544;4.662;2022-12-04T14:37:36;101944.69;;;12.91;66.02
76496;BME280;65329;52.544;4.662;2022-12-04T14:40:21;101950.16;;;12.91;66.23
76496;BME280;65329;52.544;4.662;2022-12-04T14:42:50;101952.91;;;12.91;66.00
76496;BME280;65329;52.544;4.662;2022-12-04T14:45:24;101966.56;;;12.91;66.20
76496;BME280;65329;52.544;4.662;2022-12-04T14:48:14;101957.66;;;12.89;65.91
76496;BME280;65329;52.544;4.662;2022-12-04T14:50:58;101966.19;;;12.86;66.52
76496;BME280;65329;52.544;4.662;2022-12-04T14:53:41;101952.84;;;12.83;66.58
76496;BME280;65329;52.544;4.662;2022-12-04T14:58:49;101963.28;;;12.79;66.78
76496;BME280;65329;52.544;4.662;2022-12-04T15:01:27;101966.69;;;12.81;66.62
76496;BME280;65329;52.544;4.662;2022-12-04T15:04:02;101970.63;;;12.79;66.60